Time;durP1;ratioP1;P1;durP2;ratioP2;P2;SDS_P1;SDS_P2;PMS_P1;PMS_P2;Temp;Humidity;BMP_temperature;BMP_pressure;BME280_temperature;BME280_humidity;BME280_pressure;Samples;Min_cycle;Max_cycle;Signal;HPM_P1;HPM_P2
2022/01/23 00:01:44;;;;;;;14.90;7.47;;;;;;;-2.99;97.22;100695.63;5073498;28;20226;-76
2022/01/23 00:04:13;;;;;;;7.77;6.30;;;;;;;-2.90;96.74;100692.94;5089116;28;20210;-78
2022/01/23 00:06:40;;;;;;;9.13;5.33;;;;;;;-2.85;93.47;100705.19;5091773;28;20182;-75
2022/01/23 00:09:06;;;;;;;9.53;5.37;;;;;;;-2.96;93.14;100708.53;5086420;28;20202;-77
2022/01/23 00:11:39;;;;;;;3.17;2.90;;;;;;;-2.87;91.83;100675.41;5074285;28;20666;-76
2022/01/23 00:19:35;;;;;;;7.67;5.27;;;;;;;-2.88;87.69;100693.91;5079919;28;20719;-77
2022/01/23 00:22:02;;;;;;;3.50;3.03;;;;;;;-2.75;88.36;100716.94;5086073;28;20202;-77
2022/01/23 00:32:42;;;;;;;12.60;6.60;;;;;;;-3.09;91.89;100718.50;5084611;28;20194;-77
2022/01/23 00:35:10;;;;;;;9.03;5.73;;;;;;;-3.40;93.16;100666.16;5092764;28;20214;-76
2022/01/23 00:37:37;;;;;;;12.20;6.90;;;;;;;-3.13;93.59;100724.97;5092461;28;20187;-77
2022/01/23 00:40:05;;;;;;;6.73;3.90;;;;;;;-3.29;93.66;100672.97;5093246;28;20194;-76
2022/01/23 00:42:32;;;;;;;11.80;4.70;;;;;;;-3.13;93.95;100724.97;5081498;28;20198;-76
2022/01/23 00:45:12;;;;;;;3.13;2.90;;;;;;;-3.11;95.08;100726.00;5079795;28;20190;-76
2022/01/23 00:47:38;;;;;;;13.50;4.83;;;;;;;-3.27;95.59;100691.69;5086282;28;20198;-75
2022/01/23 00:50:06;;;;;;;3.30;2.97;;;;;;;-3.15;96.58;100707.88;5072532;28;20689;-76
2022/01/23 00:52:34;;;;;;;8.67;5.13;;;;;;;-3.68;97.15;100646.25;5081882;28;20195;-77
2022/01/23 00:55:04;;;;;;;8.57;5.10;;;;;;;-3.34;97.42;100709.72;5072087;28;20221;-76
2022/01/23 00:57:33;;;;;;;5.70;4.03;;;;;;;-3.71;97.96;100696.63;5072072;28;20286;-76
2022/01/23 01:00:00;;;;;;;5.83;4.30;;;;;;;-3.35;96.85;100716.44;5072021;28;20194;-75
2022/01/23 01:02:27;;;;;;;7.90;4.83;;;;;;;-3.18;96.54;100717.78;5081643;28;20201;-77
2022/01/23 01:04:54;;;;;;;5.10;4.30;;;;;;;-3.29;95.36;100718.59;5075469;28;20673;-75
2022/01/23 01:07:20;;;;;;;8.27;5.53;;;;;;;-3.34;95.02;100719.88;5072493;28;20205;-77
2022/01/23 01:09:51;;;;;;;4.27;3.87;;;;;;;-3.11;94.84;100722.59;5079237;28;20202;-75
2022/01/23 01:12:21;;;;;;;6.03;4.77;;;;;;;-3.31;94.93;100721.00;5083508;28;20187;-75
2022/01/23 01:15:24;;;;;;;6.60;4.23;;;;;;;-3.12;93.66;100718.25;5072873;28;20230;-76
2022/01/23 01:31:46;;;;;;;6.10;5.13;;;;;;;-2.96;99.30;100738.97;5088805;28;20597;-74
2022/01/23 01:34:18;;;;;;;9.87;5.13;;;;;;;-3.37;100.00;100679.06;5072986;28;20571;-75
2022/01/23 01:36:49;;;;;;;9.50;5.57;;;;;;;-3.03;100.00;100734.19;5072298;28;20226;-75
2022/01/23 01:39:18;;;;;;;4.20;3.80;;;;;;;-3.11;100.00;100731.06;5072672;28;20259;-76
2022/01/23 01:41:46;;;;;;;6.77;4.10;;;;;;;-3.14;100.00;100740.09;5073964;28;20264;-75
2022/01/23 01:44:14;;;;;;;7.67;5.03;;;;;;;-3.05;99.85;100733.19;5092118;28;20194;-76
2022/01/23 01:46:41;;;;;;;6.47;4.53;;;;;;;-3.22;98.44;100700.56;5074405;28;20562;-76
2022/01/23 01:49:08;;;;;;;7.00;4.57;;;;;;;-3.71;98.74;100652.72;5070819;28;20195;-75
2022/01/23 01:51:36;;;;;;;5.27;4.17;;;;;;;-4.17;98.58;100579.75;5073272;28;20202;-76
2022/01/23 01:54:10;;;;;;;8.40;4.80;;;;;;;-3.25;98.67;100735.81;5091829;28;20736;-75
2022/01/23 01:56:47;;;;;;;7.37;4.80;;;;;;;-3.26;98.13;100723.91;5090966;28;20193;-75
2022/01/23 01:59:45;;;;;;;5.70;4.47;;;;;;;-3.52;97.19;100684.69;5091646;28;20190;-75
2022/01/23 02:10:25;;;;;;;9.00;4.67;;;;;;;-3.32;98.16;100738.63;5072205;28;20210;-75
2022/01/23 02:13:08;;;;;;;7.87;4.10;;;;;;;-3.54;98.61;100692.94;5082920;28;20213;-76
2022/01/23 02:16:17;;;;;;;10.23;5.13;;;;;;;-3.43;98.66;100709.91;5089327;28;20303;-76
2022/01/23 02:52:03;;;;;;;10.00;4.50;;;;;;;-3.20;100.00;100759.88;5073958;28;20260;-76
2022/01/23 02:54:46;;;;;;;3.77;2.93;;;;;;;-3.12;100.00;100756.31;5093563;28;20213;-75
2022/01/23 02:57:20;;;;;;;4.67;4.20;;;;;;;-3.25;100.00;100743.44;5094640;28;20222;-75
2022/01/23 02:59:49;;;;;;;3.93;3.43;;;;;;;-3.16;100.00;100767.84;5080117;28;20280;-76
2022/01/23 03:02:28;;;;;;;7.70;4.73;;;;;;;-3.91;100.00;100625.78;5079225;28;20201;-76
2022/01/23 03:05:00;;;;;;;5.83;4.00;;;;;;;-3.23;100.00;100764.69;5095076;28;20247;-76
2022/01/23 03:07:55;;;;;;;4.50;4.10;;;;;;;-3.33;100.00;100759.66;5075820;28;20210;-75
2022/01/23 03:10:27;;;;;;;29.17;12.57;;;;;;;-3.36;100.00;100756.88;5094422;28;20190;-76
2022/01/23 03:16:11;;;;;;;18.93;8.23;;;;;;;-3.69;100.00;100699.31;5086541;28;20241;-77
2022/01/23 03:24:27;;;;;;;23.87;9.83;;;;;;;-3.23;100.00;100755.44;5091324;28;20325;-76
2022/01/23 03:27:03;;;;;;;74.67;31.10;;;;;;;-3.27;100.00;100762.69;5089374;28;20295;-76
2022/01/23 03:29:51;;;;;;;161.53;48.23;;;;;;;-3.83;100.00;100664.38;5094459;28;20216;-77
2022/01/23 03:32:22;;;;;;;35.37;13.50;;;;;;;-3.24;100.00;100773.94;5087589;28;20739;-77
2022/01/23 03:34:49;;;;;;;22.60;8.33;;;;;;;-3.18;100.00;100773.56;5073919;28;20233;-75
2022/01/23 03:37:16;;;;;;;20.50;8.53;;;;;;;-3.48;100.00;100771.09;5074031;28;20191;-76
2022/01/23 03:39:43;;;;;;;5.27;3.93;;;;;;;-3.48;100.00;100748.28;5073828;28;20689;-77
2022/01/23 03:42:12;;;;;;;6.03;4.13;;;;;;;-3.40;100.00;100770.97;5084265;28;20199;-76
2022/01/23 03:44:51;;;;;;;7.20;4.83;;;;;;;-3.54;100.00;100771.50;5088711;28;20273;-76
2022/01/23 03:47:32;;;;;;;11.50;7.20;;;;;;;-3.53;100.00;100768.19;5086859;28;20193;-76
2022/01/23 03:49:58;;;;;;;10.93;7.10;;;;;;;-3.57;100.00;100738.31;5090991;28;20190;-77
2022/01/23 03:52:26;;;;;;;14.87;8.37;;;;;;;-3.53;100.00;100758.03;5085872;28;20202;-77
2022/01/23 03:54:53;;;;;;;19.20;7.60;;;;;;;-3.60;100.00;100764.28;5073590;28;20579;-75
2022/01/23 03:57:22;;;;;;;8.00;5.33;;;;;;;-3.38;100.00;100773.59;5073809;28;20191;-76
2022/01/23 03:59:49;;;;;;;8.73;3.43;;;;;;;-3.52;100.00;100744.63;5073557;28;20269;-77
2022/01/23 04:02:16;;;;;;;7.33;5.03;;;;;;;-3.36;100.00;100777.16;5075331;28;20191;-75
2022/01/23 04:04:43;;;;;;;10.17;6.50;;;;;;;-3.35;100.00;100773.88;5073252;28;20286;-76
2022/01/23 04:07:15;;;;;;;9.10;6.80;;;;;;;-3.37;100.00;100765.25;5080153;28;20197;-77
2022/01/23 04:09:43;;;;;;;4.83;4.10;;;;;;;-3.31;100.00;100783.47;5093073;28;20289;-77
2022/01/23 04:12:20;;;;;;;7.80;4.73;;;;;;;-4.01;100.00;100701.78;5093179;28;20221;-76
2022/01/23 04:14:55;;;;;;;8.20;5.87;;;;;;;-3.32;100.00;100784.25;5092812;28;20201;-76
2022/01/23 04:33:52;;;;;;;24.27;10.73;;;;;;;-3.29;100.00;100787.03;5093059;28;20339;-77
2022/01/23 05:01:02;;;;;;;10.37;5.47;;;;;;;-3.52;100.00;100825.72;5092205;28;20707;-77
2022/01/23 05:06:25;;;;;;;2.83;2.60;;;;;;;-3.47;100.00;100819.38;5076408;28;20583;-77
2022/01/23 05:08:53;;;;;;;14.40;6.33;;;;;;;-3.84;100.00;100742.00;5084163;28;20277;-77
2022/01/23 05:11:20;;;;;;;24.50;9.67;;;;;;;-3.66;100.00;100781.53;5091949;28;20696;-76
2022/01/23 05:13:47;;;;;;;6.70;3.33;;;;;;;-3.40;100.00;100833.44;5090477;28;20598;-77
2022/01/23 05:16:14;;;;;;;10.33;6.63;;;;;;;-3.46;100.00;100830.41;5077406;28;20225;-77
2022/01/23 05:18:42;;;;;;;4.53;4.13;;;;;;;-3.78;100.00;100775.44;5078661;28;20218;-77
2022/01/23 05:21:28;;;;;;;10.23;5.43;;;;;;;-3.71;100.00;100818.25;5078853;28;20189;-77
2022/01/23 05:23:55;;;;;;;15.13;7.33;;;;;;;-3.65;100.00;100840.69;5076894;28;20690;-77
2022/01/23 05:26:22;;;;;;;3.70;3.40;;;;;;;-3.59;100.00;100839.53;5079961;28;20246;-77
2022/01/23 05:28:49;;;;;;;13.33;6.83;;;;;;;-3.52;100.00;100851.94;5079016;28;20195;-76
2022/01/23 05:31:15;;;;;;;9.80;5.87;;;;;;;-3.57;100.00;100853.22;5080727;28;20191;-76
2022/01/23 05:33:44;;;;;;;16.87;8.80;;;;;;;-3.80;100.00;100806.47;5082237;28;20197;-76
2022/01/23 05:36:10;;;;;;;14.00;6.17;;;;;;;-3.55;100.00;100849.16;5075742;28;20226;-77
2022/01/23 05:38:37;;;;;;;11.17;6.87;;;;;;;-3.68;100.00;100841.31;5079728;28;20210;-76
2022/01/23 05:41:04;;;;;;;27.77;13.50;;;;;;;-3.61;100.00;100841.06;5081598;28;20195;-76
2022/01/23 05:43:31;;;;;;;18.03;8.87;;;;;;;-3.61;100.00;100846.13;5079066;28;20206;-77
2022/01/23 05:45:58;;;;;;;3.77;3.50;;;;;;;-3.63;100.00;100851.81;5082385;28;20224;-76
2022/01/23 05:48:24;;;;;;;3.53;3.17;;;;;;;-4.20;100.00;100752.53;5081280;28;20206;-75
2022/01/23 05:50:53;;;;;;;4.93;4.00;;;;;;;-3.53;100.00;100855.22;5079811;28;20560;-76
2022/01/23 05:53:19;;;;;;;8.90;5.60;;;;;;;-3.57;100.00;100853.22;5070507;28;20198;-77
2022/01/23 05:55:46;;;;;;;6.53;3.43;;;;;;;-3.64;100.00;100842.47;5071262;28;20222;-77
2022/01/23 05:58:13;;;;;;;8.03;5.47;;;;;;;-3.55;100.00;100831.44;5070121;28;20202;-75
2022/01/23 06:00:40;;;;;;;10.33;7.40;;;;;;;-3.58;100.00;100841.31;5071542;28;20199;-74
2022/01/23 06:03:07;;;;;;;17.67;8.70;;;;;;;-3.45;100.00;100837.25;5071073;28;20677;-79
2022/01/23 06:05:33;;;;;;;27.17;12.10;;;;;;;-3.81;100.00;100774.31;5072404;28;20203;-77
2022/01/23 06:08:02;;;;;;;16.07;8.97;;;;;;;-3.33;100.00;100841.69;5069579;28;20214;-76
2022/01/23 06:10:35;;;;;;;4.90;4.50;;;;;;;-3.16;100.00;100849.00;5071501;28;20191;-74
2022/01/23 06:13:03;;;;;;;7.93;5.43;;;;;;;-2.92;100.00;100844.09;5070944;28;20271;-76
2022/01/23 06:15:30;;;;;;;7.20;4.73;;;;;;;-3.09;100.00;100809.78;5070256;28;20691;-75
2022/01/23 06:17:56;;;;;;;9.33;5.67;;;;;;;-2.97;100.00;100841.22;5071174;28;20654;-75
2022/01/23 06:20:23;;;;;;;7.63;5.57;;;;;;;-3.38;100.00;100807.44;5071825;28;20201;-76
2022/01/23 06:22:50;;;;;;;8.67;5.97;;;;;;;-2.93;100.00;100853.38;5079773;28;20198;-76
2022/01/23 06:25:19;;;;;;;6.83;5.20;;;;;;;-3.06;100.00;100855.69;5090721;28;20186;-76
2022/01/23 06:27:46;;;;;;;7.43;5.43;;;;;;;-3.06;100.00;100860.75;5091597;28;20225;-75
2022/01/23 06:30:13;;;;;;;11.20;5.60;;;;;;;-3.38;100.00;100816.69;5095461;28;20259;-76
2022/01/23 06:32:39;;;;;;;7.10;5.07;;;;;;;-2.86;100.00;100875.94;5095706;28;20202;-76
2022/01/23 06:35:07;;;;;;;4.60;3.80;;;;;;;-3.01;100.00;100873.06;5095023;28;20197;-76
2022/01/23 06:37:34;;;;;;;7.90;4.90;;;;;;;-2.99;100.00;100873.16;5095364;28;20225;-76
2022/01/23 06:40:00;;;;;;;5.70;4.17;;;;;;;-2.90;100.00;100873.94;5093827;28;20194;-75
2022/01/23 06:42:29;;;;;;;4.80;3.43;;;;;;;-2.85;100.00;100865.00;5095050;28;20190;-75
2022/01/23 06:44:57;;;;;;;8.17;5.37;;;;;;;-2.90;100.00;100865.44;5090885;28;20187;-75
2022/01/23 06:47:24;;;;;;;9.97;6.07;;;;;;;-2.83;100.00;100866.03;5095823;28;20194;-78
2022/01/23 06:49:51;;;;;;;6.83;4.53;;;;;;;-3.00;100.00;100836.75;5096990;28;20201;-76
2022/01/23 06:52:19;;;;;;;15.30;8.23;;;;;;;-2.76;100.00;100863.22;5093125;28;20225;-78
2022/01/23 06:54:45;;;;;;;11.77;7.27;;;;;;;-2.68;100.00;100857.13;5081162;28;20199;-78
2022/01/23 06:57:12;;;;;;;15.93;9.67;;;;;;;-2.63;100.00;100863.41;5074904;28;20223;-78
2022/01/23 06:59:41;;;;;;;11.77;7.83;;;;;;;-2.78;100.00;100814.00;5074322;28;20673;-79
2022/01/23 07:02:07;;;;;;;16.97;9.07;;;;;;;-2.59;100.00;100862.00;5090032;28;20198;-77
2022/01/23 07:04:34;;;;;;;16.00;7.23;;;;;;;-2.45;100.00;100860.56;5094829;28;20186;-77
2022/01/23 07:07:01;;;;;;;8.83;5.63;;;;;;;-2.41;100.00;100855.84;5094573;28;20624;-77
2022/01/23 07:09:28;;;;;;;12.53;6.63;;;;;;;-2.37;100.00;100862.94;5094833;28;20194;-77
2022/01/23 07:11:55;;;;;;;10.27;6.00;;;;;;;-2.38;100.00;100860.25;5093998;28;20220;-79
2022/01/23 07:14:22;;;;;;;22.27;9.30;;;;;;;-2.63;100.00;100858.34;5079368;28;20239;-75
2022/01/23 07:16:50;;;;;;;20.43;9.60;;;;;;;-2.42;100.00;100853.16;5074220;28;20593;-76
2022/01/23 07:19:17;;;;;;;22.57;9.37;;;;;;;-2.41;99.74;100860.03;5083588;28;20186;-77
2022/01/23 07:21:44;;;;;;;19.27;9.30;;;;;;;-2.29;98.53;100858.47;5094716;28;20683;-81
2022/01/23 07:24:11;;;;;;;19.07;9.07;;;;;;;-2.25;97.80;100855.41;5081554;28;20195;-77
2022/01/23 07:26:38;;;;;;;7.83;4.83;;;;;;;-2.13;98.52;100851.25;5078614;28;20222;-77
2022/01/23 07:29:06;;;;;;;28.17;12.40;;;;;;;-2.10;97.47;100861.63;5083962;28;20195;-77
2022/01/23 07:31:55;;;;;;;26.60;12.33;;;;;;;-2.06;98.24;100863.66;5073630;28;20222;-76
2022/01/23 07:34:23;;;;;;;25.47;10.93;;;;;;;-2.64;99.23;100798.19;5093188;28;20700;-76
2022/01/23 07:36:50;;;;;;;26.93;11.73;;;;;;;-2.58;100.00;100788.53;5087162;28;20223;-79
2022/01/23 07:39:17;;;;;;;16.73;8.63;;;;;;;-2.12;100.00;100858.09;5073355;28;20202;-79
2022/01/23 07:41:44;;;;;;;24.77;11.07;;;;;;;-2.20;100.00;100867.66;5076855;28;20190;-77
2022/01/23 07:44:11;;;;;;;21.17;11.80;;;;;;;-2.09;100.00;100859.22;5093653;28;20194;-78
2022/01/23 07:46:38;;;;;;;18.87;9.97;;;;;;;-2.32;100.00;100807.44;5093979;28;20205;-78
2022/01/23 07:49:04;;;;;;;51.93;12.83;;;;;;;-2.63;100.00;100771.16;5091012;28;20675;-78
2022/01/23 07:51:33;;;;;;;48.80;17.03;;;;;;;-2.04;100.00;100854.50;5073942;28;20194;-79
2022/01/23 07:53:59;;;;;;;21.53;10.20;;;;;;;-2.07;100.00;100857.66;5071674;28;20202;-78
2022/01/23 07:56:27;;;;;;;30.00;12.53;;;;;;;-1.92;100.00;100855.44;5073019;28;20230;-78
2022/01/23 07:58:54;;;;;;;23.90;12.17;;;;;;;-2.83;100.00;100728.16;5074841;28;20199;-79
2022/01/23 08:01:20;;;;;;;24.27;12.27;;;;;;;-2.17;100.00;100841.63;5073759;28;20222;-79
2022/01/23 08:03:47;;;;;;;22.53;9.93;;;;;;;-1.90;100.00;100865.72;5073713;28;20620;-80
2022/01/23 08:06:15;;;;;;;34.60;14.37;;;;;;;-2.31;100.00;100796.50;5073034;28;20190;-78
2022/01/23 08:08:44;;;;;;;31.87;12.37;;;;;;;-1.95;100.00;100867.91;5073298;28;20281;-78
2022/01/23 08:11:11;;;;;;;28.43;13.33;;;;;;;-2.48;100.00;100784.16;5072874;28;20194;-79
2022/01/23 08:13:38;;;;;;;13.83;8.73;;;;;;;-2.02;100.00;100860.56;5072352;28;20203;-78
2022/01/23 08:16:05;;;;;;;8.93;5.73;;;;;;;-1.79;100.00;100864.88;5075102;28;20200;-83
2022/01/23 08:18:32;;;;;;;19.77;11.30;;;;;;;-1.84;100.00;100843.31;5074471;28;20272;-80
2022/01/23 08:20:59;;;;;;;14.13;8.83;;;;;;;-1.65;100.00;100860.06;5078406;28;20190;-82
2022/01/23 08:23:27;;;;;;;17.03;9.67;;;;;;;-1.65;100.00;100865.16;5083337;28;20198;-77
2022/01/23 08:25:55;;;;;;;26.70;13.63;;;;;;;-2.06;100.00;100782.34;5077828;28;20225;-79
2022/01/23 08:28:22;;;;;;;24.10;9.27;;;;;;;-1.78;100.00;100801.44;5095019;28;20194;-80
2022/01/23 08:30:48;;;;;;;12.83;7.47;;;;;;;-1.41;100.00;100862.66;5093416;28;20194;-78
2022/01/23 08:33:15;;;;;;;29.13;14.50;;;;;;;-1.45;100.00;100861.56;5094104;28;20194;-77
2022/01/23 08:35:45;;;;;;;33.17;19.23;;;;;;;-1.32;100.00;100871.00;5093614;28;20205;-78
2022/01/23 08:38:13;;;;;;;25.40;13.50;;;;;;;-1.42;100.00;100851.59;5089130;28;20306;-80
2022/01/23 08:41:49;;;;;;;26.40;12.47;;;;;;;-1.89;100.00;100720.97;5088995;28;20221;-80
2022/01/23 08:43:37;;;;;;;12.60;8.90;;;;;;;-1.06;100.00;100871.22;5094067;28;20202;-80
2022/01/23 08:46:04;;;;;;;19.17;11.33;;;;;;;-1.80;100.00;100777.59;5092916;28;20221;-81
2022/01/23 08:48:31;;;;;;;26.43;13.17;;;;;;;-1.41;100.00;100811.81;5081865;28;20668;-81
2022/01/23 08:50:58;;;;;;;24.00;10.70;;;;;;;-1.97;100.00;100711.03;5091514;28;20190;-80
2022/01/23 08:53:25;;;;;;;23.23;12.40;;;;;;;-1.13;100.00;100838.47;5095264;28;20643;-78
2022/01/23 08:55:52;;;;;;;20.17;9.67;;;;;;;-1.02;100.00;100870.69;5095198;28;20201;-80
2022/01/23 08:58:19;;;;;;;17.87;9.47;;;;;;;-1.30;100.00;100794.03;5079042;28;20721;-77
2022/01/23 09:00:48;;;;;;;26.87;13.50;;;;;;;-1.03;100.00;100840.91;5089701;28;20198;-78
2022/01/23 09:03:15;;;;;;;28.50;11.17;;;;;;;-0.57;100.00;100871.44;5095666;28;20241;-79
2022/01/23 09:05:42;;;;;;;15.73;9.17;;;;;;;-0.62;100.00;100862.63;5082562;28;20198;-78
2022/01/23 09:08:09;;;;;;;17.37;7.87;;;;;;;-0.55;100.00;100856.28;5076361;28;20204;-78
2022/01/23 09:10:41;;;;;;;8.77;5.83;;;;;;;-1.22;100.00;100725.91;5089528;28;20194;-76
2022/01/23 09:13:15;;;;;;;11.00;5.17;;;;;;;-0.89;100.00;100784.25;5093644;28;20229;-78
2022/01/23 09:15:44;;;;;;;20.90;12.80;;;;;;;-0.37;100.00;100849.94;5091269;28;20202;-76
2022/01/23 09:18:12;;;;;;;26.90;14.90;;;;;;;-0.19;100.00;100850.34;5081132;28;20232;-75
2022/01/23 09:20:39;;;;;;;24.63;13.00;;;;;;;-0.37;100.00;100828.69;5092323;28;20198;-75
2022/01/23 09:23:06;;;;;;;25.40;13.80;;;;;;;-0.10;100.00;100845.88;5092563;28;20194;-77
2022/01/23 09:25:32;;;;;;;29.43;13.67;;;;;;;0.36;100.00;100830.38;5091560;28;20202;-76
2022/01/23 09:28:04;;;;;;;20.47;10.47;;;;;;;-0.05;100.00;100803.75;5084952;28;20236;-77
2022/01/23 09:30:35;;;;;;;17.37;9.20;;;;;;;-0.08;100.00;100804.44;5071558;28;20593;-77
2022/01/23 09:33:03;;;;;;;11.10;6.73;;;;;;;-0.06;100.00;100815.63;5071818;28;20683;-77
2022/01/23 09:35:31;;;;;;;13.87;8.23;;;;;;;-0.88;100.00;100657.91;5081768;28;20201;-76
2022/01/23 09:37:58;;;;;;;17.00;9.33;;;;;;;0.10;100.00;100802.25;5085691;28;20215;-77
2022/01/23 09:40:25;;;;;;;22.53;10.73;;;;;;;0.09;100.00;100772.44;5076352;28;20205;-76
2022/01/23 09:43:03;;;;;;;24.90;11.27;;;;;;;-0.46;100.00;100701.56;5091258;28;20201;-76
2022/01/23 09:45:31;;;;;;;22.67;10.93;;;;;;;0.28;100.00;100800.06;5082080;28;20205;-75
2022/01/23 09:48:02;;;;;;;21.63;10.07;;;;;;;0.23;100.00;100799.75;5072477;28;20201;-75
2022/01/23 09:50:32;;;;;;;30.70;13.27;;;;;;;0.36;100.00;100801.44;5071271;28;20190;-76
2022/01/23 09:53:00;;;;;;;12.30;8.57;;;;;;;0.00;100.00;100738.72;5072482;28;20198;-78
2022/01/23 09:55:27;;;;;;;16.83;9.33;;;;;;;0.32;100.00;100787.59;5070946;28;20202;-73
2022/01/23 09:57:55;;;;;;;13.83;5.47;;;;;;;0.56;100.00;100795.13;5071672;28;20226;-76
2022/01/23 10:00:25;;;;;;;18.93;10.33;;;;;;;0.35;100.00;100756.34;5071400;28;20203;-78
2022/01/23 10:02:52;;;;;;;36.33;17.27;;;;;;;0.38;100.00;100772.72;5072279;28;20234;-76
2022/01/23 10:05:20;;;;;;;13.13;6.83;;;;;;;0.37;100.00;100791.34;5075476;28;20198;-76
2022/01/23 10:07:48;;;;;;;19.23;8.13;;;;;;;0.56;100.00;100792.56;5075630;28;20194;-76
2022/01/23 10:10:20;;;;;;;11.00;5.13;;;;;;;0.28;100.00;100728.66;5075222;28;20198;-77
2022/01/23 10:12:50;;;;;;;15.00;7.00;;;;;;;0.79;100.00;100794.94;5082512;28;20191;-76
2022/01/23 10:15:17;;;;;;;22.23;10.70;;;;;;;0.77;97.10;100735.25;5074754;28;20195;-78
2022/01/23 10:17:45;;;;;;;20.20;9.00;;;;;;;0.82;94.64;100756.88;5074839;28;20269;-77
2022/01/23 10:20:13;;;;;;;22.47;9.67;;;;;;;0.56;95.05;100690.53;5073682;28;20199;-77
2022/01/23 10:22:43;;;;;;;23.23;11.67;;;;;;;1.18;94.58;100779.59;5074684;28;20625;-75
2022/01/23 10:25:13;;;;;;;16.57;8.30;;;;;;;1.19;94.03;100766.06;5074157;28;20203;-77
2022/01/23 10:27:57;;;;;;;22.67;10.47;;;;;;;0.68;93.06;100696.41;5074016;28;20249;-76
2022/01/23 10:30:26;;;;;;;10.87;5.00;;;;;;;0.80;94.15;100738.00;5083612;28;20207;-77
2022/01/23 10:33:07;;;;;;;13.10;6.70;;;;;;;0.76;94.93;100756.47;5074750;28;20683;-76
2022/01/23 10:35:36;;;;;;;10.10;7.13;;;;;;;0.74;95.91;100747.84;5092025;28;20251;-74
2022/01/23 10:38:12;;;;;;;16.67;6.67;;;;;;;0.68;95.34;100738.09;5075190;28;20215;-78
2022/01/23 10:40:49;;;;;;;10.00;5.80;;;;;;;0.82;92.93;100746.66;5074054;28;20195;-77
2022/01/23 10:48:48;;;;;;;20.67;10.43;;;;;;;1.02;86.48;100725.81;5075041;28;20206;-76
2022/01/23 10:51:21;;;;;;;17.03;8.93;;;;;;;1.39;86.16;100742.63;5093667;28;20214;-79
2022/01/23 10:54:04;;;;;;;11.53;7.67;;;;;;;0.90;81.41;100679.97;5095311;28;20278;-78
2022/01/23 10:56:38;;;;;;;10.93;7.63;;;;;;;1.47;80.38;100748.22;5095002;28;20198;-78
2022/01/23 10:59:06;;;;;;;8.20;5.43;;;;;;;1.06;79.35;100676.72;5093524;28;20226;-78
2022/01/23 11:01:34;;;;;;;10.97;7.20;;;;;;;1.60;78.72;100735.41;5075146;28;20191;-76
2022/01/23 11:04:05;;;;;;;19.23;8.83;;;;;;;1.65;77.84;100713.56;5074393;28;20199;-76
2022/01/23 11:06:32;;;;;;;11.30;6.50;;;;;;;1.71;75.97;100761.63;5074176;28;20194;-76
2022/01/23 11:09:09;;;;;;;19.87;9.90;;;;;;;1.75;76.25;100745.69;5084470;28;20201;-77
2022/01/23 11:11:47;;;;;;;24.63;10.23;;;;;;;1.31;75.39;100687.66;5075036;28;20198;-77
2022/01/23 11:19:46;;;;;;;10.73;5.13;;;;;;;0.97;80.11;100696.56;5086836;28;20287;-78
2022/01/23 11:22:18;;;;;;;11.67;7.00;;;;;;;1.35;79.48;100762.81;5078763;28;20237;-79
2022/01/23 11:24:47;;;;;;;43.07;8.10;;;;;;;1.46;84.07;100724.34;5076508;28;20257;-77
2022/01/23 11:27:17;;;;;;;11.33;4.90;;;;;;;1.61;75.19;100760.16;5080719;28;20352;-77
2022/01/23 11:29:55;;;;;;;6.43;4.67;;;;;;;1.86;74.60;100767.63;5086104;28;20191;-77
2022/01/23 11:32:24;;;;;;;15.40;7.27;;;;;;;1.87;75.01;100762.63;5084625;28;20194;-79
2022/01/23 11:34:58;;;;;;;16.20;7.27;;;;;;;1.86;73.83;100760.84;5096659;28;20229;-78
2022/01/23 11:37:24;;;;;;;8.10;5.37;;;;;;;1.65;73.62;100769.78;5081844;28;20222;-80
2022/01/23 11:39:57;;;;;;;9.87;4.90;;;;;;;1.66;74.29;100761.34;5091972;28;20198;-80
2022/01/23 11:51:03;;;;;;;20.90;11.40;;;;;;;1.87;74.74;100761.75;5091581;28;20671;-79
2022/01/23 11:56:37;;;;;;;25.50;11.27;;;;;;;1.79;76.46;100751.06;5097843;28;20192;-81
2022/01/23 11:59:19;;;;;;;113.00;40.90;;;;;;;1.63;75.12;100756.03;5094290;28;20722;-80
2022/01/23 12:01:51;;;;;;;109.57;40.93;;;;;;;0.68;74.96;100589.25;5093775;28;20194;-80
2022/01/23 12:04:20;;;;;;;42.53;16.87;;;;;;;1.91;73.35;100743.25;5085521;28;20222;-79
2022/01/23 12:07:20;;;;;;;92.70;31.03;;;;;;;1.94;71.83;100753.66;5087648;28;20281;-78
2022/01/23 12:10:11;;;;;;;58.20;23.33;;;;;;;2.18;70.49;100751.66;5077000;28;20587;-80
2022/01/23 12:12:41;;;;;;;25.00;11.70;;;;;;;2.13;68.37;100751.41;5084592;28;20272;-78
2022/01/23 12:18:16;;;;;;;16.10;8.63;;;;;;;1.82;68.82;100758.91;5077068;28;20229;-79
2022/01/23 12:20:44;;;;;;;16.50;7.20;;;;;;;1.89;77.94;100734.63;5075522;28;20194;-79
2022/01/23 12:23:12;;;;;;;13.20;6.90;;;;;;;1.25;70.65;100684.72;5074705;28;20195;-79
2022/01/23 12:25:44;;;;;;;57.13;23.50;;;;;;;1.66;71.51;100763.00;5079193;28;20252;-79
2022/01/23 12:28:15;;;;;;;15.67;7.07;;;;;;;0.93;72.32;100628.22;5078433;28;20230;-77
2022/01/23 12:30:45;;;;;;;74.10;29.73;;;;;;;1.62;74.82;100761.03;5075333;28;20195;-75
2022/01/23 12:33:28;;;;;;;20.70;9.60;;;;;;;1.22;78.48;100714.28;5075248;28;20201;-78
2022/01/23 12:35:58;;;;;;;16.00;8.37;;;;;;;1.07;83.36;100739.75;5083749;28;20206;-78
2022/01/23 12:38:31;;;;;;;18.87;7.87;;;;;;;1.03;85.99;100727.59;5083253;28;20758;-79
2022/01/23 12:41:15;;;;;;;8.17;6.10;;;;;;;0.56;97.18;100716.03;5080519;28;20203;-77
2022/01/23 12:43:43;;;;;;;9.50;4.50;;;;;;;0.60;100.00;100753.72;5080118;28;20194;-76
2022/01/23 12:46:16;;;;;;;11.83;6.93;;;;;;;0.60;100.00;100728.19;5081692;28;20198;-77
2022/01/23 12:48:48;;;;;;;11.13;5.80;;;;;;;0.47;100.00;100660.19;5079150;28;20264;-77
2022/01/23 12:51:45;;;;;;;7.67;5.43;;;;;;;1.24;100.00;100728.94;5081250;28;20195;-78
2022/01/23 12:54:38;;;;;;;37.90;16.23;;;;;;;1.20;100.00;100732.09;5061691;28;20191;-77
2022/01/23 12:57:11;;;;;;;33.67;16.97;;;;;;;1.32;100.00;100697.06;5082372;28;20202;-78
2022/01/23 12:59:38;;;;;;;27.63;12.90;;;;;;;1.50;99.92;100693.06;5082346;28;20235;-78
2022/01/23 13:02:15;;;;;;;24.93;11.50;;;;;;;1.95;100.00;100719.63;5077593;28;20666;-77
2022/01/23 13:04:44;;;;;;;26.73;12.23;;;;;;;1.37;87.50;100695.69;5076100;28;20191;-78
2022/01/23 13:07:22;;;;;;;23.23;10.43;;;;;;;1.34;85.56;100674.19;5079748;28;20674;-78
2022/01/23 13:09:59;;;;;;;17.57;7.00;;;;;;;1.35;81.81;100717.72;5076189;28;20191;-78
2022/01/23 13:15:25;;;;;;;10.43;6.07;;;;;;;1.21;77.99;100721.09;5075707;28;20202;-78
2022/01/23 13:18:04;;;;;;;13.30;7.73;;;;;;;0.57;76.12;100631.06;5074487;28;20234;-76
2022/01/23 13:32:23;;;;;;;12.40;7.57;;;;;;;0.88;69.35;100683.22;5073410;28;20631;-78
2022/01/23 13:34:56;;;;;;;11.20;6.63;;;;;;;1.14;67.95;100716.34;5072805;28;20191;-78
2022/01/23 13:37:26;;;;;;;20.60;10.03;;;;;;;1.25;68.87;100714.50;5074196;28;20206;-79
2022/01/23 13:39:58;;;;;;;13.00;7.77;;;;;;;0.43;68.61;100597.91;5071539;28;20198;-78
2022/01/23 13:54:05;;;;;;;7.50;5.10;;;;;;;0.58;64.54;100637.91;5077610;28;20202;-78
2022/01/23 13:59:25;;;;;;;7.57;4.63;;;;;;;0.51;64.18;100600.94;5071276;28;20698;-76
2022/01/23 14:01:57;;;;;;;12.70;6.50;;;;;;;0.95;63.43;100701.59;5071774;28;20724;-77
2022/01/23 14:04:26;;;;;;;11.67;4.97;;;;;;;1.13;63.40;100701.84;5090839;28;20198;-76
2022/01/23 14:06:55;;;;;;;17.57;6.90;;;;;;;1.06;62.70;100694.59;5092269;28;20193;-76
2022/01/23 14:09:24;;;;;;;29.53;11.00;;;;;;;0.83;63.45;100674.41;5090500;28;20205;-77
2022/01/23 14:11:51;;;;;;;36.33;14.17;;;;;;;0.59;63.27;100640.56;5071425;28;20594;-76
2022/01/23 14:14:19;;;;;;;46.80;13.63;;;;;;;0.91;64.00;100708.94;5090145;28;20613;-78
2022/01/23 14:16:48;;;;;;;69.27;19.97;;;;;;;0.95;63.96;100708.34;5093913;28;20197;-77
2022/01/23 14:19:17;;;;;;;77.13;22.00;;;;;;;0.72;63.88;100673.72;5089592;28;20221;-77
2022/01/23 14:21:47;;;;;;;64.33;22.07;;;;;;;1.07;63.63;100711.66;5094320;28;20220;-76
2022/01/23 14:24:23;;;;;;;78.40;30.23;;;;;;;0.72;64.11;100660.06;5074804;28;20203;-76
2022/01/23 14:27:02;;;;;;;33.03;14.67;;;;;;;1.17;63.80;100716.56;5072980;28;20226;-76